Time;durP1;ratioP1;P1;durP2;ratioP2;P2;SDS_P1;SDS_P2;PMS_P1;PMS_P2;Temp;Humidity;BMP_temperature;BMP_pressure;BME280_temperature;BME280_humidity;BME280_pressure;Samples;Min_cycle;Max_cycle;Signal;HPM_P1;HPM_P2
2024/02/11 00:01:02;;;;;;;19.30;18.67;;;10.30;99.90;;;;;;5054424;28;21194;-74
2024/02/11 00:03:30;;;;;;;17.93;17.33;;;10.30;99.90;;;;;;5057446;28;20452;-74
2024/02/11 00:05:58;;;;;;;18.43;17.83;;;10.30;99.90;;;;;;5056094;28;21025;-71
2024/02/11 00:08:25;;;;;;;18.80;18.20;;;10.30;99.90;;;;;;5053347;28;20491;-73
2024/02/11 00:10:53;;;;;;;18.60;18.00;;;10.30;99.90;;;;;;5051703;28;20468;-72
2024/02/11 00:13:22;;;;;;;18.80;18.20;;;10.30;99.90;;;;;;5062260;28;20453;-71
2024/02/11 00:15:50;;;;;;;18.67;18.07;;;10.30;99.90;;;;;;5051215;28;20547;-72
2024/02/11 00:18:19;;;;;;;19.20;18.60;;;10.30;99.90;;;;;;5060578;28;20471;-71
2024/02/11 00:20:46;;;;;;;18.57;17.97;;;10.30;99.90;;;;;;5049476;28;20522;-70
2024/02/11 00:23:13;;;;;;;19.13;18.53;;;10.40;99.90;;;;;;5048189;28;20522;-73
2024/02/11 00:25:40;;;;;;;19.20;18.57;;;10.40;99.90;;;;;;5052855;28;21037;-73
2024/02/11 00:28:08;;;;;;;18.87;18.27;;;10.40;99.90;;;;;;5053101;28;20456;-71
2024/02/11 00:30:38;;;;;;;20.07;19.37;;;10.30;99.90;;;;;;5053295;28;20890;-71
2024/02/11 00:33:05;;;;;;;18.87;18.27;;;10.30;99.90;;;;;;5050399;28;20466;-71
2024/02/11 00:35:32;;;;;;;19.77;19.10;;;10.30;99.90;;;;;;5050310;28;20492;-74
2024/02/11 00:38:00;;;;;;;19.60;19.00;;;10.20;99.90;;;;;;5050466;28;20468;-72
2024/02/11 00:40:27;;;;;;;19.40;18.80;;;10.30;99.90;;;;;;5047971;28;20469;-72
2024/02/11 00:42:55;;;;;;;18.60;18.00;;;10.30;99.90;;;;;;5054387;28;20460;-74
2024/02/11 00:45:23;;;;;;;18.57;17.97;;;10.30;99.90;;;;;;5049744;28;20495;-72
2024/02/11 00:47:52;;;;;;;19.23;18.63;;;10.30;99.90;;;;;;5057236;28;20496;-72
2024/02/11 00:50:19;;;;;;;18.87;18.27;;;10.30;99.90;;;;;;5052291;28;20769;-73
2024/02/11 00:52:48;;;;;;;20.40;19.70;;;10.30;99.90;;;;;;5053035;28;20464;-71
2024/02/11 00:55:21;;;;;;;18.93;18.33;;;10.30;99.90;;;;;;5048281;28;20471;-71
2024/02/11 00:57:49;;;;;;;18.70;18.10;;;10.30;99.90;;;;;;5050432;28;20481;-71
2024/02/11 01:00:17;;;;;;;20.37;19.67;;;10.30;99.90;;;;;;5057984;28;20596;-71
2024/02/11 01:02:44;;;;;;;19.83;19.13;;;10.30;99.90;;;;;;5050511;28;20485;-70
2024/02/11 01:05:13;;;;;;;19.33;18.70;;;10.30;99.90;;;;;;5044749;28;20546;-72
2024/02/11 01:07:41;;;;;;;19.57;18.93;;;10.40;99.90;;;;;;5054784;28;20459;-71
2024/02/11 01:10:10;;;;;;;19.30;18.70;;;10.40;99.90;;;;;;5048391;28;20469;-71
2024/02/11 01:12:39;;;;;;;20.00;19.30;;;10.40;99.90;;;;;;5053654;28;21141;-73
2024/02/11 01:15:07;;;;;;;19.37;18.77;;;10.30;99.90;;;;;;5055801;28;20954;-71
2024/02/11 01:17:34;;;;;;;19.03;18.43;;;10.20;99.90;;;;;;5047281;28;20534;-72
2024/02/11 01:20:01;;;;;;;19.07;18.47;;;10.20;99.90;;;;;;5057105;28;20743;-71
2024/02/11 01:22:30;;;;;;;19.20;18.60;;;10.20;99.90;;;;;;5050379;28;20689;-75
2024/02/11 01:24:57;;;;;;;19.20;18.60;;;10.20;99.90;;;;;;5045289;28;20498;-72
2024/02/11 01:27:23;;;;;;;18.80;18.20;;;10.20;99.90;;;;;;5051497;28;20507;-71
2024/02/11 01:29:51;;;;;;;18.77;18.17;;;10.20;99.90;;;;;;5045702;28;20480;-71
2024/02/11 01:32:19;;;;;;;18.63;18.03;;;10.20;99.90;;;;;;5035391;28;20456;-71
2024/02/11 01:34:47;;;;;;;19.23;18.63;;;10.20;99.90;;;;;;5050395;28;20510;-71
2024/02/11 01:37:14;;;;;;;18.57;17.97;;;10.20;99.90;;;;;;5046296;28;20465;-71
2024/02/11 01:39:42;;;;;;;19.63;18.97;;;10.20;99.90;;;;;;5048320;28;20476;-71
2024/02/11 01:42:09;;;;;;;18.93;18.33;;;10.30;99.90;;;;;;5056681;28;20565;-72
2024/02/11 01:44:36;;;;;;;19.30;18.60;;;10.30;99.90;;;;;;5053219;28;20956;-71
2024/02/11 01:47:04;;;;;;;19.13;18.43;;;10.30;99.90;;;;;;5049883;28;20470;-73
2024/02/11 01:49:32;;;;;;;19.80;19.10;;;10.30;99.90;;;;;;5053465;28;20466;-71
2024/02/11 01:52:01;;;;;;;19.60;18.90;;;10.20;99.90;;;;;;5049308;28;20469;-71
2024/02/11 01:54:30;;;;;;;19.13;18.53;;;10.20;99.90;;;;;;5049274;28;20459;-72
2024/02/11 01:57:01;;;;;;;19.53;18.83;;;10.20;99.90;;;;;;5053322;28;20546;-71
2024/02/11 01:59:30;;;;;;;19.33;18.63;;;10.20;99.90;;;;;;5056042;28;20477;-73
2024/02/11 02:01:58;;;;;;;19.03;18.43;;;10.10;99.90;;;;;;5051890;28;20480;-70
2024/02/11 02:04:27;;;;;;;19.60;18.90;;;10.10;99.90;;;;;;5046085;28;20850;-70
2024/02/11 02:06:56;;;;;;;20.40;19.70;;;10.10;99.90;;;;;;5044622;28;20621;-71
2024/02/11 02:09:24;;;;;;;19.33;18.67;;;10.10;99.90;;;;;;5047115;28;20541;-72
2024/02/11 02:11:50;;;;;;;19.07;18.47;;;10.20;99.90;;;;;;5059263;28;20827;-72
2024/02/11 02:14:19;;;;;;;18.50;17.90;;;10.20;99.90;;;;;;5047654;28;20523;-74
2024/02/11 02:16:45;;;;;;;18.93;18.33;;;10.20;99.90;;;;;;5044744;28;20465;-74
2024/02/11 02:19:14;;;;;;;19.07;18.47;;;10.20;99.90;;;;;;5051151;28;20460;-71
2024/02/11 02:21:48;;;;;;;18.37;17.77;;;10.20;99.90;;;;;;5044356;28;20467;-71
2024/02/11 02:24:16;;;;;;;18.43;17.83;;;10.10;99.90;;;;;;5049180;28;20459;-72
2024/02/11 02:26:42;;;;;;;19.67;18.97;;;10.10;99.90;;;;;;5046831;28;20860;-71
2024/02/11 02:29:10;;;;;;;19.50;18.80;;;10.20;99.90;;;;;;5042627;28;20481;-71
2024/02/11 02:31:37;;;;;;;20.00;19.30;;;10.20;99.90;;;;;;5044709;28;20512;-74
2024/02/11 02:34:04;;;;;;;19.33;18.70;;;10.20;99.90;;;;;;5052244;28;20470;-72
2024/02/11 02:36:31;;;;;;;20.37;19.67;;;10.20;99.90;;;;;;5048488;28;20999;-73
2024/02/11 02:38:59;;;;;;;20.20;19.50;;;10.20;99.90;;;;;;5048090;28;20468;-71
2024/02/11 02:41:27;;;;;;;18.77;18.17;;;10.20;99.90;;;;;;5045321;28;20480;-71
2024/02/11 02:43:54;;;;;;;20.43;19.73;;;10.10;99.90;;;;;;5048154;28;21053;-70
2024/02/11 02:46:21;;;;;;;19.70;19.00;;;10.10;99.90;;;;;;5042454;28;20492;-73
2024/02/11 02:48:50;;;;;;;19.03;18.40;;;10.20;99.90;;;;;;5048888;28;20453;-71
2024/02/11 02:51:18;;;;;;;19.03;18.40;;;10.20;99.90;;;;;;5049115;28;20472;-72
2024/02/11 02:53:45;;;;;;;18.63;18.03;;;10.20;99.90;;;;;;5049270;28;20459;-71
2024/02/11 02:56:15;;;;;;;19.97;19.27;;;10.20;99.90;;;;;;5046824;28;20456;-70
2024/02/11 02:58:42;;;;;;;18.90;18.30;;;10.20;99.90;;;;;;5045082;28;20485;-70
2024/02/11 03:01:09;;;;;;;19.80;19.10;;;10.10;99.90;;;;;;5050696;28;21037;-71
2024/02/11 03:03:36;;;;;;;18.60;18.00;;;10.10;99.90;;;;;;5049406;28;20466;-70
2024/02/11 03:06:03;;;;;;;19.73;19.03;;;10.10;99.90;;;;;;5045675;28;21052;-71
2024/02/11 03:08:30;;;;;;;19.80;19.10;;;10.10;99.90;;;;;;5047857;28;20456;-69
2024/02/11 03:10:58;;;;;;;19.80;19.10;;;10.10;99.90;;;;;;5046384;28;20497;-70
2024/02/11 03:13:27;;;;;;;19.70;19.00;;;10.00;99.90;;;;;;5050267;28;20446;-72
2024/02/11 03:15:53;;;;;;;18.80;18.20;;;10.00;99.90;;;;;;5053370;28;20560;-70
2024/02/11 03:18:22;;;;;;;19.97;19.27;;;10.00;99.90;;;;;;5049908;28;20463;-71
2024/02/11 03:20:49;;;;;;;20.30;19.60;;;10.10;99.90;;;;;;5041939;28;20476;-72
2024/02/11 03:23:15;;;;;;;19.60;18.90;;;10.10;99.90;;;;;;5046289;28;20467;-71
2024/02/11 03:25:42;;;;;;;20.00;19.30;;;10.10;99.90;;;;;;5050229;28;20491;-70
2024/02/11 03:28:11;;;;;;;20.43;19.73;;;10.10;99.90;;;;;;5049185;28;21045;-70
2024/02/11 03:30:39;;;;;;;19.20;18.50;;;10.10;99.90;;;;;;5051311;28;20549;-71
2024/02/11 03:33:06;;;;;;;19.90;19.20;;;10.20;99.90;;;;;;5049865;28;20469;-70
2024/02/11 03:35:34;;;;;;;18.27;17.67;;;10.20;99.90;;;;;;5042590;28;20453;-70
2024/02/11 03:38:01;;;;;;;20.50;19.70;;;10.20;99.90;;;;;;5044083;28;21002;-71
2024/02/11 03:40:31;;;;;;;19.67;18.97;;;10.20;99.90;;;;;;5046195;28;20448;-71
2024/02/11 03:42:58;;;;;;;19.40;18.70;;;10.20;99.90;;;;;;5047830;28;20464;-71
2024/02/11 03:45:25;;;;;;;19.27;18.57;;;10.20;99.90;;;;;;5050748;28;20484;-71
2024/02/11 03:47:53;;;;;;;19.70;19.00;;;10.20;99.90;;;;;;5056831;28;20840;-70
2024/02/11 03:50:23;;;;;;;19.40;18.70;;;10.10;99.90;;;;;;5051028;28;20479;-69
2024/02/11 03:52:50;;;;;;;18.07;17.47;;;10.10;99.90;;;;;;5054869;28;20978;-71
2024/02/11 03:55:18;;;;;;;18.33;17.73;;;10.20;99.90;;;;;;5052936;28;20471;-72
2024/02/11 03:57:45;;;;;;;19.17;18.47;;;10.20;99.90;;;;;;5051191;28;20596;-73
2024/02/11 04:00:16;;;;;;;18.20;17.60;;;10.30;99.90;;;;;;5061969;28;20447;-72
2024/02/11 04:02:43;;;;;;;17.70;17.10;;;10.30;99.90;;;;;;5058234;28;21017;-73
2024/02/11 04:05:12;;;;;;;18.53;17.90;;;10.30;99.90;;;;;;5056772;28;20476;-74
2024/02/11 04:07:45;;;;;;;18.97;18.27;;;10.30;99.90;;;;;;5056812;28;20449;-70
2024/02/11 04:10:19;;;;;;;18.57;17.87;;;10.30;99.90;;;;;;5051901;28;20456;-71
2024/02/11 04:12:47;;;;;;;18.70;18.00;;;10.40;99.90;;;;;;5053427;28;20492;-71
2024/02/11 04:15:16;;;;;;;19.03;18.33;;;10.40;99.90;;;;;;5052561;28;20463;-74
2024/02/11 04:17:48;;;;;;;17.90;17.30;;;10.40;99.90;;;;;;5049843;28;20548;-70
2024/02/11 04:20:23;;;;;;;19.83;19.07;;;10.40;99.90;;;;;;5053150;28;20557;-72
2024/02/11 04:22:53;;;;;;;19.23;18.50;;;10.50;99.90;;;;;;5057807;28;20477;-70
2024/02/11 04:25:22;;;;;;;20.40;19.60;;;10.50;99.90;;;;;;5049627;28;20463;-70
2024/02/11 04:27:49;;;;;;;19.13;18.40;;;10.50;99.90;;;;;;5049894;28;20510;-70
2024/02/11 04:30:19;;;;;;;20.63;19.83;;;10.50;99.90;;;;;;5058242;28;20585;-73
2024/02/11 04:32:47;;;;;;;20.43;19.63;;;10.50;99.90;;;;;;5056998;28;20460;-71
2024/02/11 04:35:16;;;;;;;20.17;19.37;;;10.60;99.90;;;;;;5047686;28;20897;-70
2024/02/11 04:37:47;;;;;;;20.30;19.50;;;10.60;99.90;;;;;;5050251;28;20819;-70
2024/02/11 04:40:15;;;;;;;19.73;18.93;;;10.60;99.90;;;;;;5046942;28;20484;-70
2024/02/11 04:42:43;;;;;;;20.67;19.87;;;10.60;99.90;;;;;;5053966;28;20871;-73
2024/02/11 04:45:15;;;;;;;19.97;19.17;;;10.50;99.90;;;;;;5051623;28;20467;-71
2024/02/11 04:47:45;;;;;;;20.37;19.57;;;10.60;99.90;;;;;;5054630;28;20489;-70
2024/02/11 04:50:15;;;;;;;19.70;18.90;;;10.60;99.90;;;;;;5048141;28;20469;-73
2024/02/11 04:52:48;;;;;;;20.30;19.50;;;10.60;99.90;;;;;;5049020;28;20456;-70
2024/02/11 04:55:18;;;;;;;20.50;19.70;;;10.60;99.90;;;;;;5046746;28;21113;-72
2024/02/11 04:57:45;;;;;;;21.50;20.60;;;10.60;99.90;;;;;;5044481;28;21096;-72
2024/02/11 05:00:25;;;;;;;21.40;20.50;;;10.60;99.90;;;;;;5048996;28;21164;-71
2024/02/11 05:02:53;;;;;;;21.33;20.50;;;10.50;99.90;;;;;;5053078;28;20468;-73
2024/02/11 05:05:25;;;;;;;19.80;19.10;;;10.50;99.90;;;;;;5048643;28;20487;-71
2024/02/11 05:07:54;;;;;;;16.27;15.77;;;10.30;99.90;;;;;;5053838;28;21085;-73
2024/02/11 05:10:23;;;;;;;15.00;14.60;;;9.70;99.90;;;;;;5054502;28;21023;-71
2024/02/11 05:12:50;;;;;;;14.37;13.97;;;9.20;99.90;;;;;;5051841;28;20460;-73
2024/02/11 05:15:20;;;;;;;14.43;14.03;;;8.70;99.90;;;;;;5049972;28;20466;-72
2024/02/11 05:17:49;;;;;;;12.80;12.50;;;8.60;99.90;;;;;;5047411;28;21032;-72
2024/02/11 05:20:23;;;;;;;12.70;12.40;;;8.30;99.90;;;;;;5054755;28;20829;-72
2024/02/11 05:22:51;;;;;;;12.37;12.07;;;8.10;99.90;;;;;;5055069;28;20514;-71
2024/02/11 05:25:20;;;;;;;12.10;11.80;;;8.00;99.90;;;;;;5052211;28;20460;-71
2024/02/11 05:27:55;;;;;;;12.87;12.57;;;7.80;99.90;;;;;;5047278;28;20683;-76
2024/02/11 05:30:24;;;;;;;13.70;13.30;;;7.70;99.90;;;;;;5056926;28;20563;-71
2024/02/11 05:32:51;;;;;;;13.20;12.90;;;7.60;99.90;;;;;;5052901;28;20774;-73
2024/02/11 05:35:19;;;;;;;13.40;13.10;;;7.60;99.90;;;;;;5048253;28;20456;-71
2024/02/11 05:37:46;;;;;;;14.40;14.00;;;7.60;99.90;;;;;;5049496;28;21031;-72
2024/02/11 05:40:13;;;;;;;14.87;14.47;;;7.50;99.90;;;;;;5054887;28;20464;-71
2024/02/11 05:42:42;;;;;;;14.73;14.33;;;7.50;99.90;;;;;;5052466;28;20480;-73
2024/02/11 05:45:10;;;;;;;14.10;13.70;;;7.50;99.90;;;;;;5046852;28;20550;-72
2024/02/11 05:47:37;;;;;;;13.53;13.20;;;7.50;99.90;;;;;;5051517;28;20468;-71
2024/02/11 05:50:06;;;;;;;13.23;12.93;;;7.50;99.90;;;;;;5050650;28;20479;-72
2024/02/11 05:52:33;;;;;;;12.97;12.67;;;7.50;99.90;;;;;;5053471;28;20460;-71
2024/02/11 05:55:00;;;;;;;13.67;13.33;;;7.50;99.90;;;;;;5052981;28;20466;-74
2024/02/11 05:57:28;;;;;;;12.93;12.63;;;7.50;99.90;;;;;;5049196;28;20495;-71
2024/02/11 05:59:57;;;;;;;14.90;14.50;;;7.50;99.90;;;;;;5048892;28;21197;-72
2024/02/11 06:02:26;;;;;;;14.10;13.70;;;7.60;99.90;;;;;;5047674;28;20598;-72
2024/02/11 06:04:54;;;;;;;14.53;14.13;;;7.60;99.90;;;;;;5047502;28;20932;-73
2024/02/11 06:07:22;;;;;;;14.07;13.67;;;7.60;99.90;;;;;;5054509;28;20460;-73
2024/02/11 06:09:49;;;;;;;14.27;13.87;;;7.60;99.90;;;;;;5050967;28;20954;-75
2024/02/11 06:12:16;;;;;;;15.70;15.20;;;7.60;99.90;;;;;;5050656;28;20470;-72
2024/02/11 06:14:44;;;;;;;14.87;14.47;;;7.70;99.90;;;;;;5050329;28;20483;-72
2024/02/11 06:17:12;;;;;;;15.80;15.30;;;7.60;99.90;;;;;;5052406;28;20507;-74
2024/02/11 06:19:42;;;;;;;15.23;14.77;;;7.60;99.90;;;;;;5055644;28;20604;-71
2024/02/11 06:22:09;;;;;;;15.40;14.90;;;7.70;99.90;;;;;;5049431;28;20455;-71
2024/02/11 06:24:37;;;;;;;15.23;14.80;;;7.80;99.90;;;;;;5048240;28;20612;-72
2024/02/11 06:27:05;;;;;;;16.17;15.67;;;7.80;99.90;;;;;;5051092;28;20542;-72
2024/02/11 06:29:32;;;;;;;15.27;14.80;;;7.80;99.90;;;;;;5044649;28;20472;-73
2024/02/11 06:32:00;;;;;;;16.53;16.03;;;7.80;99.90;;;;;;5052830;28;20546;-72
2024/02/11 06:34:28;;;;;;;16.10;15.60;;;7.80;99.90;;;;;;5050512;28;20467;-70
2024/02/11 06:36:56;;;;;;;15.87;15.37;;;7.80;99.90;;;;;;5052340;28;21026;-74
2024/02/11 06:39:24;;;;;;;15.37;14.87;;;7.90;99.90;;;;;;5045723;28;20803;-73
2024/02/11 06:41:52;;;;;;;14.87;14.47;;;7.90;99.90;;;;;;5050490;28;20539;-71
2024/02/11 06:44:26;;;;;;;15.90;15.40;;;7.90;99.90;;;;;;5051619;28;20466;-71
2024/02/11 06:46:54;;;;;;;16.93;16.37;;;7.90;99.90;;;;;;5045613;28;20452;-73
2024/02/11 06:49:22;;;;;;;19.20;18.50;;;7.90;99.90;;;;;;5054494;28;20487;-72
2024/02/11 06:51:51;;;;;;;19.33;18.63;;;7.90;99.90;;;;;;5048985;28;20555;-72
2024/02/11 06:54:18;;;;;;;19.83;19.03;;;8.00;99.90;;;;;;5056224;28;20451;-72
2024/02/11 06:56:47;;;;;;;20.10;19.30;;;8.00;99.90;;;;;;5045092;28;20491;-72
2024/02/11 06:59:14;;;;;;;19.93;19.13;;;8.00;99.90;;;;;;5048716;28;20518;-73
2024/02/11 07:01:42;;;;;;;19.23;18.53;;;8.00;99.90;;;;;;5054524;28;20478;-72
2024/02/11 07:04:12;;;;;;;18.03;17.43;;;8.00;99.90;;;;;;5050836;28;20467;-71
2024/02/11 07:09:24;;;;;;;17.93;17.23;;;7.90;99.90;;;;;;5057147;28;20459;-73
2024/02/11 07:11:52;;;;;;;18.60;17.90;;;7.90;99.90;;;;;;5056466;28;20459;-72
2024/02/11 07:14:20;;;;;;;18.33;17.63;;;7.90;99.90;;;;;;5047830;28;20464;-72
2024/02/11 07:16:49;;;;;;;19.00;18.20;;;7.90;99.90;;;;;;5050026;28;20484;-72
2024/02/11 07:19:16;;;;;;;18.17;17.47;;;7.90;99.90;;;;;;5050771;28;20482;-71
2024/02/11 07:21:43;;;;;;;18.20;17.50;;;7.90;99.90;;;;;;5056761;28;20554;-71
2024/02/11 07:24:11;;;;;;;17.87;17.17;;;8.00;99.90;;;;;;5058236;28;20470;-71
2024/02/11 07:26:40;;;;;;;17.70;17.00;;;7.90;99.90;;;;;;5055800;28;20885;-74
2024/02/11 07:29:08;;;;;;;18.30;17.60;;;8.00;99.90;;;;;;5056269;28;20453;-71
2024/02/11 07:31:37;;;;;;;17.77;17.07;;;8.10;99.90;;;;;;5055333;28;20468;-73
2024/02/11 07:34:05;;;;;;;17.57;16.97;;;8.00;99.90;;;;;;5049812;28;20461;-71
2024/02/11 07:36:32;;;;;;;17.20;16.60;;;8.00;99.90;;;;;;5051127;28;20492;-70
2024/02/11 07:38:59;;;;;;;17.30;16.70;;;8.00;99.90;;;;;;5052320;28;20452;-73
2024/02/11 07:41:26;;;;;;;17.20;16.60;;;8.10;99.90;;;;;;5052168;28;20475;-70
2024/02/11 07:43:55;;;;;;;16.63;16.03;;;8.10;99.90;;;;;;5053001;28;20889;-71
2024/02/11 07:46:23;;;;;;;16.73;16.13;;;8.10;99.90;;;;;;5052346;28;20555;-73
2024/02/11 07:48:51;;;;;;;16.40;15.83;;;8.10;99.90;;;;;;5051486;28;20496;-71
2024/02/11 07:51:19;;;;;;;16.30;15.80;;;8.10;99.90;;;;;;5054347;28;20834;-71
2024/02/11 07:53:46;;;;;;;16.60;16.00;;;8.20;99.90;;;;;;5054650;28;20467;-73
2024/02/11 07:56:16;;;;;;;16.40;15.90;;;8.20;99.90;;;;;;5053604;28;20851;-71
2024/02/11 07:58:44;;;;;;;17.13;16.53;;;8.20;99.90;;;;;;5052017;28;20552;-71
2024/02/11 08:01:12;;;;;;;16.90;16.30;;;8.20;99.90;;;;;;5054229;28;20492;-72
2024/02/11 08:03:39;;;;;;;17.30;16.70;;;8.20;99.90;;;;;;5056186;28;20536;-72
2024/02/11 08:06:09;;;;;;;17.57;16.97;;;8.30;99.90;;;;;;5056286;28;20467;-71
2024/02/11 08:08:36;;;;;;;18.20;17.50;;;8.40;99.90;;;;;;5054938;28;20864;-71
2024/02/11 08:11:03;;;;;;;19.17;18.40;;;8.30;99.90;;;;;;5051390;28;20466;-71
2024/02/11 08:13:32;;;;;;;18.90;18.13;;;8.30;99.90;;;;;;5052425;28;20468;-70
2024/02/11 08:16:00;;;;;;;19.17;18.37;;;8.40;99.90;;;;;;5053559;28;20453;-73
2024/02/11 08:18:28;;;;;;;18.27;17.57;;;8.50;99.90;;;;;;5056064;28;20497;-72
2024/02/11 08:20:56;;;;;;;18.37;17.67;;;8.50;99.90;;;;;;5049849;28;20540;-71
2024/02/11 08:23:24;;;;;;;18.70;18.00;;;8.50;99.90;;;;;;5053282;28;21275;-70
2024/02/11 08:25:52;;;;;;;19.00;18.30;;;8.50;99.90;;;;;;5059900;28;20455;-74
2024/02/11 08:28:19;;;;;;;18.17;17.47;;;8.60;99.90;;;;;;5051027;28;20464;-73
2024/02/11 08:30:46;;;;;;;19.07;18.37;;;8.60;99.90;;;;;;5051413;28;20470;-71
2024/02/11 08:33:13;;;;;;;17.67;17.07;;;8.60;99.90;;;;;;5056307;28;20961;-71
2024/02/11 08:35:41;;;;;;;17.53;16.87;;;8.60;99.90;;;;;;5049911;28;20471;-71
2024/02/11 08:38:10;;;;;;;18.37;17.67;;;8.70;99.90;;;;;;5053910;28;20926;-71
2024/02/11 08:40:37;;;;;;;17.53;16.93;;;8.60;99.90;;;;;;5051868;28;21021;-71
2024/02/11 08:43:05;;;;;;;18.10;17.40;;;8.60;99.90;;;;;;5055450;28;20471;-72
2024/02/11 08:45:32;;;;;;;18.57;17.87;;;8.80;99.90;;;;;;5053495;28;20583;-71
2024/02/11 08:47:59;;;;;;;18.53;17.83;;;8.80;99.90;;;;;;5052036;28;20464;-73
2024/02/11 08:50:26;;;;;;;19.33;18.53;;;8.90;99.90;;;;;;5047644;28;20937;-73
2024/02/11 08:52:55;;;;;;;19.47;18.67;;;9.00;99.90;;;;;;5053655;28;20468;-71
2024/02/11 08:55:22;;;;;;;20.53;19.63;;;9.10;99.90;;;;;;5039412;28;20464;-74
2024/02/11 08:57:49;;;;;;;19.57;18.77;;;9.10;99.90;;;;;;5051061;28;20526;-72
2024/02/11 09:00:18;;;;;;;19.23;18.43;;;9.20;99.90;;;;;;5051811;28;20474;-73
2024/02/11 09:02:45;;;;;;;19.17;18.37;;;9.20;99.90;;;;;;5059131;28;20472;-74
2024/02/11 09:05:12;;;;;;;19.50;18.70;;;9.30;99.90;;;;;;5051303;28;20474;-71
2024/02/11 09:07:42;;;;;;;20.40;19.50;;;9.30;99.90;;;;;;5052694;28;21141;-71
2024/02/11 09:10:14;;;;;;;20.37;19.47;;;9.30;99.90;;;;;;5046558;28;20577;-71
2024/02/11 09:12:41;;;;;;;20.27;19.37;;;9.40;99.90;;;;;;5055520;28;20472;-72
2024/02/11 09:15:09;;;;;;;19.53;18.73;;;9.40;99.90;;;;;;5054332;28;20464;-72
2024/02/11 09:17:43;;;;;;;20.83;19.93;;;9.30;99.90;;;;;;5058473;28;20480;-71
2024/02/11 09:20:13;;;;;;;20.03;19.23;;;9.30;99.90;;;;;;5059546;28;20448;-71
2024/02/11 09:22:41;;;;;;;20.00;19.20;;;9.40;99.90;;;;;;5049767;28;20484;-73
2024/02/11 09:25:11;;;;;;;18.70;18.00;;;9.50;99.90;;;;;;5040992;28;20580;-71
2024/02/11 09:27:39;;;;;;;19.17;18.43;;;9.50;99.90;;;;;;5044155;28;20500;-72
2024/02/11 09:30:11;;;;;;;18.00;17.30;;;9.50;99.90;;;;;;5054273;28;20451;-73
2024/02/11 09:32:39;;;;;;;17.83;17.13;;;9.50;99.90;;;;;;5053969;28;20456;-74
2024/02/11 09:35:07;;;;;;;18.37;17.67;;;9.50;99.90;;;;;;5050659;28;20455;-71
2024/02/11 09:37:34;;;;;;;18.30;17.60;;;9.50;99.90;;;;;;5053257;28;20476;-71
2024/02/11 09:40:02;;;;;;;18.87;18.17;;;9.50;99.90;;;;;;5049917;28;20489;-73
2024/02/11 09:42:31;;;;;;;18.23;17.53;;;9.60;99.90;;;;;;5050793;28;20465;-73
2024/02/11 09:45:03;;;;;;;17.20;16.50;;;9.60;99.90;;;;;;5052779;28;20495;-74
2024/02/11 09:47:30;;;;;;;18.80;18.00;;;9.60;99.90;;;;;;5049991;28;20791;-70
2024/02/11 09:50:03;;;;;;;19.20;18.40;;;9.80;99.90;;;;;;5060426;28;20467;-75
2024/02/11 09:52:30;;;;;;;18.80;18.00;;;9.90;99.90;;;;;;5056620;28;20456;-71
2024/02/11 09:54:57;;;;;;;19.40;18.60;;;10.00;99.90;;;;;;5054819;28;20458;-71
2024/02/11 09:57:25;;;;;;;19.57;18.77;;;10.00;99.90;;;;;;5044564;28;20599;-72
2024/02/11 09:59:54;;;;;;;19.20;18.40;;;10.10;99.90;;;;;;5052548;28;20981;-73
2024/02/11 10:02:23;;;;;;;17.83;17.13;;;10.20;99.90;;;;;;5051507;28;20486;-72
2024/02/11 10:04:57;;;;;;;17.67;16.97;;;10.10;99.90;;;;;;5060547;28;20464;-71
2024/02/11 10:07:26;;;;;;;18.20;17.50;;;10.30;99.90;;;;;;5059992;28;20467;-73
2024/02/11 10:09:57;;;;;;;17.70;17.00;;;10.30;99.90;;;;;;5055991;28;20457;-72
2024/02/11 10:12:26;;;;;;;17.73;17.03;;;10.20;99.90;;;;;;5045982;28;20527;-71
2024/02/11 10:14:56;;;;;;;17.73;17.03;;;10.30;99.90;;;;;;5050806;28;20513;-74
2024/02/11 10:17:23;;;;;;;17.23;16.53;;;10.40;99.90;;;;;;5049892;28;20775;-71
2024/02/11 10:19:51;;;;;;;16.77;16.17;;;10.40;99.90;;;;;;5047812;28;20569;-72
2024/02/11 10:22:18;;;;;;;16.50;15.90;;;10.40;99.90;;;;;;5055495;28;20511;-71
2024/02/11 10:24:47;;;;;;;15.93;15.33;;;10.50;99.90;;;;;;5050838;28;20472;-71
2024/02/11 10:27:15;;;;;;;16.57;15.97;;;10.50;99.90;;;;;;5058076;28;20877;-71
2024/02/11 10:29:44;;;;;;;14.80;14.30;;;10.60;99.90;;;;;;5055242;28;20864;-71
2024/02/11 10:32:14;;;;;;;15.67;15.07;;;10.50;99.90;;;;;;5045927;28;20557;-71
2024/02/11 10:34:43;;;;;;;15.40;14.80;;;10.60;99.90;;;;;;5039951;28;20478;-72
2024/02/11 10:37:12;;;;;;;15.37;14.77;;;10.70;99.90;;;;;;5048047;28;20472;-70
2024/02/11 10:39:40;;;;;;;15.43;14.83;;;10.90;99.90;;;;;;5054773;28;20660;-71
2024/02/11 10:42:10;;;;;;;15.00;14.50;;;10.90;99.90;;;;;;5051022;28;20481;-71
2024/02/11 10:44:39;;;;;;;14.60;14.10;;;11.00;99.90;;;;;;5054768;28;20489;-71
2024/02/11 10:47:08;;;;;;;14.53;14.03;;;11.10;99.90;;;;;;5044096;28;20476;-70
2024/02/11 10:49:36;;;;;;;14.07;13.57;;;11.00;99.90;;;;;;5055956;28;20461;-71
2024/02/11 10:52:07;;;;;;;14.93;14.33;;;11.20;99.90;;;;;;5055586;28;20820;-70
2024/02/11 10:54:41;;;;;;;14.43;13.93;;;11.10;99.90;;;;;;5056987;28;20975;-70
2024/02/11 10:57:12;;;;;;;13.87;13.37;;;11.00;99.90;;;;;;5049273;28;20499;-70
2024/02/11 10:59:44;;;;;;;13.97;13.47;;;11.10;99.90;;;;;;5058096;28;20931;-70
2024/02/11 11:02:14;;;;;;;14.10;13.60;;;11.10;99.90;;;;;;5051001;28;20495;-72
2024/02/11 11:04:46;;;;;;;14.50;14.00;;;11.30;99.90;;;;;;5052780;28;20461;-71
2024/02/11 11:07:15;;;;;;;13.77;13.27;;;11.50;99.90;;;;;;5060642;28;20449;-73
2024/02/11 11:09:43;;;;;;;13.50;13.03;;;11.70;99.90;;;;;;5060343;28;20845;-70
2024/02/11 11:12:15;;;;;;;13.93;13.43;;;11.90;99.90;;;;;;5046619;28;20572;-74
2024/02/11 11:14:45;;;;;;;13.73;13.23;;;12.30;99.90;;;;;;5056251;28;20471;-71
2024/02/11 11:17:21;;;;;;;13.57;13.13;;;12.70;99.90;;;;;;5049167;28;20549;-70
2024/02/11 11:19:52;;;;;;;13.00;12.60;;;13.00;99.90;;;;;;5047711;28;20622;-70
2024/02/11 11:22:26;;;;;;;13.40;13.00;;;12.70;99.90;;;;;;5054851;28;20537;-70
2024/02/11 11:24:55;;;;;;;13.30;12.90;;;12.30;99.90;;;;;;5052922;28;20487;-71
2024/02/11 11:27:23;;;;;;;13.07;12.67;;;12.50;99.90;;;;;;5057648;28;20854;-71
2024/02/11 11:29:50;;;;;;;12.80;12.40;;;12.30;99.90;;;;;;5050410;28;20471;-70
2024/02/11 11:32:22;;;;;;;12.20;11.90;;;12.00;99.90;;;;;;5057943;28;20472;-71
2024/02/11 11:34:51;;;;;;;11.73;11.43;;;12.10;99.90;;;;;;5059988;28;20976;-70
2024/02/11 11:37:18;;;;;;;11.30;11.00;;;12.20;99.90;;;;;;5047744;28;20493;-70
2024/02/11 11:39:46;;;;;;;11.60;11.30;;;12.50;99.90;;;;;;5050796;28;20593;-70
2024/02/11 11:42:14;;;;;;;11.90;11.60;;;12.70;99.90;;;;;;5050809;28;20491;-71
2024/02/11 11:44:42;;;;;;;11.23;10.93;;;12.80;99.90;;;;;;5054292;28;21046;-70
2024/02/11 11:47:09;;;;;;;11.47;11.17;;;13.00;99.90;;;;;;5055182;28;20524;-71
2024/02/11 11:49:37;;;;;;;11.00;10.70;;;12.90;99.90;;;;;;5042229;28;20863;-70
2024/02/11 11:52:08;;;;;;;11.20;10.90;;;12.70;99.90;;;;;;5053090;28;20625;-72
2024/02/11 11:54:35;;;;;;;11.90;11.60;;;12.40;99.90;;;;;;5052313;28;20553;-71
2024/02/11 11:57:05;;;;;;;11.63;11.33;;;12.50;99.90;;;;;;5055147;28;20469;-70
2024/02/11 11:59:32;;;;;;;11.23;10.93;;;12.30;99.90;;;;;;5045707;28;20497;-69
2024/02/11 12:01:59;;;;;;;11.17;10.87;;;12.40;99.90;;;;;;5053059;28;20485;-70
2024/02/11 12:04:27;;;;;;;11.17;10.87;;;12.70;99.90;;;;;;5051231;28;20512;-71
2024/02/11 12:06:55;;;;;;;11.27;10.97;;;13.00;99.90;;;;;;5044148;28;20576;-70
2024/02/11 12:09:25;;;;;;;11.10;10.80;;;13.10;99.90;;;;;;5056416;28;20463;-70
2024/02/11 12:11:52;;;;;;;10.50;10.30;;;13.10;99.90;;;;;;5055345;28;20464;-72
2024/02/11 12:14:20;;;;;;;11.33;11.03;;;13.10;99.90;;;;;;5049320;28;20950;-70
2024/02/11 12:16:48;;;;;;;10.83;10.60;;;13.10;99.90;;;;;;5052564;28;20573;-69
2024/02/11 12:19:15;;;;;;;11.03;10.73;;;12.90;99.90;;;;;;5049287;28;20752;-71
2024/02/11 12:21:42;;;;;;;11.10;10.80;;;12.70;99.90;;;;;;5047797;28;20467;-70
2024/02/11 12:24:24;;;;;;;11.20;10.90;;;12.70;99.90;;;;;;5045601;28;20468;-71
2024/02/11 12:26:58;;;;;;;10.97;10.67;;;12.60;99.90;;;;;;5054863;28;20494;-70
2024/02/11 12:29:27;;;;;;;11.20;10.90;;;12.60;99.90;;;;;;5045818;28;20478;-70
2024/02/11 12:31:56;;;;;;;11.20;10.90;;;12.80;99.90;;;;;;5054506;28;20954;-71
2024/02/11 12:34:25;;;;;;;10.70;10.50;;;13.20;99.90;;;;;;5045773;28;20943;-71
2024/02/11 12:36:59;;;;;;;11.20;10.90;;;13.50;99.90;;;;;;5047638;28;20826;-70
2024/02/11 12:39:26;;;;;;;11.10;10.80;;;13.20;99.90;;;;;;5047749;28;20853;-71